createdAt,value
2023-04-13T00:00:22.451Z,8.67
2023-04-13T00:02:49.731Z,8.65
2023-04-13T00:05:17.026Z,8.65
2023-04-13T00:07:44.239Z,8.65
2023-04-13T00:10:11.495Z,8.67
2023-04-13T00:12:39.653Z,8.66
2023-04-13T00:15:08.061Z,8.67
2023-04-13T00:17:35.981Z,8.65
2023-04-13T00:20:03.216Z,8.65
2023-04-13T00:22:30.319Z,8.64
2023-04-13T00:24:57.534Z,8.61
2023-04-13T00:27:24.800Z,8.63
2023-04-13T00:29:52.108Z,8.61
2023-04-13T00:32:19.266Z,8.60
2023-04-13T00:34:46.398Z,8.58
2023-04-13T00:37:13.806Z,8.56
2023-04-13T00:39:41.737Z,8.54
2023-04-13T00:42:09.154Z,8.49
2023-04-13T00:44:36.693Z,8.52
2023-04-13T00:47:05.222Z,8.54
2023-04-13T00:49:36.178Z,8.51
2023-04-13T00:52:03.831Z,8.51
2023-04-13T00:54:32.772Z,8.50
2023-04-13T00:57:01.155Z,8.51
2023-04-13T00:59:29.512Z,8.48
2023-04-13T01:01:56.814Z,8.46
2023-04-13T01:04:26.022Z,8.44
2023-04-13T01:07:21.107Z,8.42
2023-04-13T01:10:28.365Z,8.38
2023-04-13T01:13:10.537Z,8.35
2023-04-13T01:15:44.379Z,8.33
2023-04-13T01:18:14.405Z,8.28
2023-04-13T01:20:46.217Z,8.26
2023-04-13T01:23:56.550Z,8.23
2023-04-13T01:26:32.430Z,8.22
2023-04-13T01:28:59.622Z,8.21
2023-04-13T01:31:27.310Z,8.19
2023-04-13T01:33:54.575Z,8.18
2023-04-13T01:36:22.406Z,8.18
2023-04-13T01:38:49.709Z,8.16
2023-04-13T01:41:16.862Z,8.16
2023-04-13T01:43:44.778Z,8.12
2023-04-13T01:46:13.933Z,8.13
2023-04-13T01:48:51.954Z,8.14
2023-04-13T01:51:24.861Z,8.15
2023-04-13T01:54:19.381Z,8.11
2023-04-13T01:56:48.006Z,8.12
2023-04-13T01:59:16.148Z,8.13
2023-04-13T02:01:43.634Z,8.10
2023-04-13T02:04:11.204Z,7.97
2023-04-13T02:06:38.615Z,8.01
2023-04-13T02:09:05.823Z,8.05
2023-04-13T02:11:34.574Z,8.04
2023-04-13T02:14:01.742Z,8.03
2023-04-13T02:16:28.957Z,8.01
2023-04-13T02:18:56.161Z,8.00
2023-04-13T02:21:23.671Z,7.96
2023-04-13T02:23:50.878Z,7.92
2023-04-13T02:26:18.254Z,7.91
2023-04-13T02:28:45.556Z,7.90
2023-04-13T02:31:12.878Z,7.90
2023-04-13T02:33:40.011Z,7.88
2023-04-13T02:36:08.148Z,7.88
2023-04-13T02:38:35.508Z,7.87
2023-04-13T02:41:03.054Z,7.85
2023-04-13T02:43:30.420Z,7.84
2023-04-13T02:45:58.058Z,7.83
2023-04-13T02:48:25.350Z,7.84
2023-04-13T02:50:54.213Z,7.84
2023-04-13T02:53:21.576Z,7.87
2023-04-13T02:55:48.960Z,7.88
2023-04-13T02:58:16.117Z,7.83
2023-04-13T03:00:43.236Z,7.84
2023-04-13T03:03:10.392Z,7.80
2023-04-13T03:05:38.150Z,7.81
2023-04-13T03:08:05.448Z,7.82
2023-04-13T03:10:32.644Z,7.82
2023-04-13T03:12:59.922Z,7.83
2023-04-13T03:15:27.564Z,7.81
2023-04-13T03:17:54.942Z,7.79
2023-04-13T03:20:22.386Z,7.77
2023-04-13T03:22:49.692Z,7.74
2023-04-13T03:25:17.042Z,7.78
2023-04-13T03:27:44.166Z,7.77
2023-04-13T03:30:11.937Z,7.77
2023-04-13T03:32:39.241Z,7.76
2023-04-13T03:35:06.891Z,7.76
2023-04-13T03:37:34.233Z,7.78
2023-04-13T03:40:01.728Z,7.76
2023-04-13T03:42:30.453Z,7.71
2023-04-13T03:44:58.634Z,7.65
2023-04-13T03:47:26.000Z,7.60
2023-04-13T03:49:53.425Z,7.52
2023-04-13T03:52:20.654Z,7.60
2023-04-13T03:54:47.879Z,7.54
2023-04-13T03:57:15.182Z,7.52
2023-04-13T03:59:42.364Z,7.55
2023-04-13T04:02:09.552Z,7.50
2023-04-13T04:04:36.791Z,7.50
2023-04-13T04:07:03.993Z,7.45
2023-04-13T04:09:31.719Z,7.49
2023-04-13T04:11:59.230Z,7.47
2023-04-13T04:14:26.378Z,7.39
2023-04-13T04:16:53.626Z,7.42
2023-04-13T04:19:20.859Z,7.39
2023-04-13T04:21:48.505Z,7.40
2023-04-13T04:24:17.475Z,7.44
2023-04-13T04:26:45.377Z,7.43
2023-04-13T04:29:12.588Z,7.41
2023-04-13T04:31:41.261Z,7.42
2023-04-13T04:34:08.447Z,7.33
2023-04-13T04:36:35.626Z,7.29
2023-04-13T04:39:03.059Z,7.28
2023-04-13T04:41:30.340Z,7.20
2023-04-13T04:43:57.717Z,7.20
2023-04-13T04:46:25.517Z,7.15
2023-04-13T04:48:54.433Z,7.09
2023-04-13T04:51:21.769Z,7.06
2023-04-13T04:53:49.267Z,6.99
2023-04-13T04:56:16.492Z,6.99
2023-04-13T04:58:43.686Z,6.94
2023-04-13T05:01:10.892Z,6.90
2023-04-13T05:03:38.323Z,6.84
2023-04-13T05:06:05.919Z,6.76
2023-04-13T05:08:33.275Z,6.67
2023-04-13T05:11:00.459Z,6.63
2023-04-13T05:13:27.685Z,6.56
2023-04-13T05:15:54.963Z,6.56
2023-04-13T05:18:22.202Z,6.51
2023-04-13T05:20:49.273Z,6.49
2023-04-13T05:23:16.454Z,6.41
2023-04-13T05:25:43.619Z,6.37
2023-04-13T05:28:10.748Z,6.36
2023-04-13T05:30:37.887Z,6.35
2023-04-13T05:33:05.326Z,6.19
2023-04-13T05:35:32.571Z,6.27
2023-04-13T05:37:59.795Z,6.24
2023-04-13T05:40:27.069Z,6.17
2023-04-13T05:42:54.257Z,6.10
2023-04-13T05:45:21.765Z,5.84
2023-04-13T05:47:49.153Z,5.57
2023-04-13T05:50:16.347Z,5.32
2023-04-13T05:52:43.567Z,5.54
2023-04-13T05:55:11.193Z,5.63
2023-04-13T05:57:38.393Z,5.65
2023-04-13T06:00:06.648Z,5.62
2023-04-13T06:02:33.888Z,5.55
2023-04-13T06:05:01.338Z,5.49
2023-04-13T06:07:28.774Z,5.34
2023-04-13T06:09:55.960Z,5.28
2023-04-13T06:12:23.109Z,5.17
2023-04-13T06:14:50.644Z,5.17
2023-04-13T06:17:17.840Z,5.03
2023-04-13T06:19:44.996Z,4.96
2023-04-13T06:22:12.165Z,4.91
2023-04-13T06:24:39.242Z,4.87
2023-04-13T06:27:06.426Z,4.90
2023-04-13T06:29:33.681Z,4.93
2023-04-13T06:32:00.798Z,4.94
2023-04-13T06:34:27.974Z,5.03
2023-04-13T06:36:55.107Z,5.00
2023-04-13T06:39:22.223Z,4.86
2023-04-13T06:41:49.501Z,4.82
2023-04-13T06:44:18.396Z,4.86
2023-04-13T06:46:45.579Z,5.06
2023-04-13T06:49:13.059Z,5.00
2023-04-13T06:51:40.521Z,5.05
2023-04-13T06:54:07.989Z,4.93
2023-04-13T06:56:35.142Z,4.99
2023-04-13T06:59:02.919Z,4.90
2023-04-13T07:01:30.714Z,4.63
2023-04-13T07:03:58.001Z,4.68
2023-04-13T07:06:25.419Z,4.69
2023-04-13T07:08:52.573Z,4.85
2023-04-13T07:11:20.197Z,4.73
2023-04-13T07:13:47.500Z,4.91
2023-04-13T07:16:14.699Z,4.95
2023-04-13T07:18:41.898Z,4.99
2023-04-13T11:26:16.893Z,5.44
2023-04-13T11:28:47.914Z,5.49
2023-04-13T11:31:15.087Z,5.51
2023-04-13T11:33:42.300Z,5.56
2023-04-13T11:36:10.165Z,5.56
2023-04-13T11:38:40.495Z,5.62
2023-04-13T11:41:16.408Z,5.53
2023-04-13T11:43:45.446Z,5.57
2023-04-13T11:46:12.977Z,5.64
2023-04-13T11:48:41.146Z,5.62
2023-04-13T11:51:09.414Z,5.63
2023-04-13T11:53:36.702Z,5.62
2023-04-13T11:56:04.497Z,5.66
2023-04-13T11:58:32.197Z,5.61
2023-04-13T12:01:13.744Z,5.56
2023-04-13T12:03:56.844Z,5.57
2023-04-13T12:06:31.474Z,5.62
2023-04-13T12:09:10.124Z,5.58
2023-04-13T12:11:44.275Z,5.40
2023-04-13T12:19:27.512Z,5.35
2023-04-13T12:21:55.944Z,5.36
2023-04-13T12:24:35.102Z,5.37
2023-04-13T12:29:38.639Z,5.34
2023-04-13T12:32:13.838Z,5.35
2023-04-13T12:34:42.086Z,5.39
2023-04-13T12:37:11.076Z,5.29
2023-04-13T12:39:38.436Z,5.24
2023-04-13T12:42:05.838Z,5.06
2023-04-13T12:44:34.298Z,4.82
2023-04-13T12:47:02.068Z,4.79
2023-04-13T12:49:29.806Z,4.80
2023-04-13T12:51:57.261Z,4.80
2023-04-13T12:54:24.479Z,4.85
2023-04-13T12:56:51.631Z,4.79
2023-04-13T12:59:19.067Z,4.72
2023-04-13T13:01:46.387Z,4.74
2023-04-13T13:04:13.807Z,4.64
2023-04-13T13:06:41.056Z,4.63
2023-04-13T13:09:08.361Z,4.58
2023-04-13T13:11:35.764Z,4.50
2023-04-13T13:14:03.134Z,4.58
2023-04-13T13:16:31.308Z,4.61
2023-04-13T13:18:58.696Z,4.68
2023-04-13T13:21:26.342Z,4.72
2023-04-13T13:23:53.817Z,4.59
2023-04-13T13:26:24.484Z,4.71
2023-04-13T13:28:53.746Z,4.75
2023-04-13T13:31:21.159Z,4.79
2023-04-13T13:33:48.599Z,4.90
2023-04-13T13:36:16.122Z,5.01
2023-04-13T13:38:43.880Z,5.05
2023-04-13T13:41:11.239Z,5.10
2023-04-13T13:43:39.505Z,5.13
2023-04-13T13:46:07.084Z,5.12
2023-04-13T13:48:34.401Z,5.03
2023-04-13T13:51:01.626Z,5.01
2023-04-13T13:53:28.931Z,4.98
2023-04-13T13:55:56.208Z,5.02
2023-04-13T13:58:23.514Z,4.93
2023-04-13T14:00:50.749Z,4.81
2023-04-13T14:03:18.161Z,4.94
2023-04-13T14:05:45.510Z,5.05
2023-04-13T14:08:12.671Z,5.11
2023-04-13T14:10:40.236Z,5.13
2023-04-13T14:13:07.564Z,5.18
2023-04-13T14:15:34.864Z,5.18
2023-04-13T14:18:10.442Z,5.18
2023-04-13T14:20:39.613Z,5.24
2023-04-13T14:23:07.867Z,5.25
2023-04-13T14:25:35.280Z,5.27
2023-04-13T14:28:02.753Z,5.24
2023-04-13T14:30:30.084Z,5.20
2023-04-13T14:32:57.321Z,5.10
2023-04-13T14:35:24.619Z,5.16
2023-04-13T14:37:52.076Z,5.19
2023-04-13T14:40:19.673Z,5.14
2023-04-13T14:42:46.942Z,5.21
2023-04-13T14:45:14.246Z,5.22
2023-04-13T14:47:41.505Z,5.17
2023-04-13T14:50:09.319Z,5.07
2023-04-13T14:52:36.755Z,5.08
2023-04-13T14:55:04.890Z,5.06
2023-04-13T14:57:32.237Z,5.04
2023-04-13T14:59:59.458Z,5.00
2023-04-13T15:02:28.352Z,4.94
2023-04-13T15:04:56.068Z,4.88
2023-04-13T15:07:23.481Z,4.94
2023-04-13T15:09:50.761Z,4.94
2023-04-13T15:12:18.040Z,5.00
2023-04-13T15:14:45.993Z,5.01
2023-04-13T15:19:41.010Z,4.98
2023-04-13T15:22:09.122Z,4.96
2023-04-13T15:24:36.300Z,4.95
2023-04-13T15:27:03.563Z,4.89
2023-04-13T15:29:31.009Z,4.93
2023-04-13T15:31:58.941Z,4.89
2023-04-13T15:34:26.216Z,4.82
2023-04-13T15:36:53.948Z,4.88
2023-04-13T15:39:21.254Z,4.87
2023-04-13T15:41:49.021Z,4.74
2023-04-13T15:44:16.523Z,4.78
2023-04-13T15:46:44.029Z,4.79
2023-04-13T15:49:11.276Z,4.81
2023-04-13T15:51:38.515Z,4.75
2023-04-13T15:54:05.994Z,4.75
2023-04-13T15:56:33.248Z,4.72
2023-04-13T15:59:00.745Z,4.66
2023-04-13T16:01:28.303Z,4.70
2023-04-13T16:03:55.825Z,4.62
2023-04-13T16:06:23.271Z,4.43
2023-04-13T16:08:50.445Z,4.52
2023-04-13T16:11:17.711Z,4.43
2023-04-13T16:13:48.988Z,4.43
2023-04-13T16:16:17.325Z,4.38
2023-04-13T16:18:44.584Z,4.36
2023-04-13T16:21:11.782Z,4.32
2023-04-13T16:23:39.046Z,4.38
2023-04-13T16:26:09.610Z,4.31
2023-04-13T16:28:37.007Z,4.31
2023-04-13T16:31:08.508Z,4.25
2023-04-13T16:33:35.786Z,4.25
2023-04-13T16:36:03.011Z,4.18
2023-04-13T16:38:30.352Z,4.26
2023-04-13T16:40:57.769Z,4.22
2023-04-13T16:43:24.922Z,4.21
2023-04-13T16:45:52.177Z,4.26
2023-04-13T16:48:19.947Z,4.24
2023-04-13T16:50:47.410Z,4.24
2023-04-13T16:53:15.058Z,4.20
2023-04-13T16:55:42.470Z,4.16
2023-04-13T16:58:10.107Z,4.13
2023-04-13T17:00:37.543Z,4.15
2023-04-13T17:03:05.126Z,4.12
2023-04-13T17:05:32.561Z,4.18
2023-04-13T17:08:00.184Z,4.20
2023-04-13T17:10:27.735Z,4.19
2023-04-13T17:12:55.522Z,4.22
2023-04-13T17:15:23.499Z,4.20
2023-04-13T17:17:50.689Z,4.16
2023-04-13T17:20:18.755Z,4.17
2023-04-13T17:22:47.335Z,4.19
2023-04-13T17:25:15.164Z,4.18
2023-04-13T17:27:42.426Z,4.21
2023-04-13T17:30:10.597Z,4.22
2023-04-13T17:32:38.554Z,4.19
2023-04-13T17:35:06.855Z,4.15
2023-04-13T17:37:34.578Z,4.11
2023-04-13T17:40:02.034Z,4.05
2023-04-13T17:42:29.238Z,4.06
2023-04-13T17:44:56.642Z,4.12
2023-04-13T17:47:24.633Z,3.97
2023-04-13T17:49:51.973Z,4.02
2023-04-13T17:52:19.905Z,4.10
2023-04-13T17:54:50.469Z,4.11
2023-04-13T17:57:18.001Z,4.10
2023-04-13T17:59:45.267Z,4.10
2023-04-13T18:02:12.920Z,4.12
2023-04-13T18:04:40.736Z,4.12
2023-04-13T18:07:08.078Z,4.07
2023-04-13T18:09:35.744Z,4.06
2023-04-13T18:12:05.417Z,4.10
2023-04-13T18:14:33.040Z,4.11
2023-04-13T18:17:03.408Z,4.08
2023-04-13T18:19:34.066Z,4.09
2023-04-13T18:22:01.680Z,4.09
2023-04-13T18:24:29.190Z,4.09
2023-04-13T18:26:56.370Z,4.09
2023-04-13T18:29:23.634Z,4.10
2023-04-13T18:31:51.079Z,4.07
2023-04-13T18:34:18.348Z,4.07
2023-04-13T18:36:46.178Z,4.08
2023-04-13T18:39:13.328Z,4.10
2023-04-13T18:41:42.259Z,4.11
2023-04-13T18:44:09.867Z,4.12
2023-04-13T18:46:37.111Z,4.13
2023-04-13T18:49:04.906Z,4.14
2023-04-13T18:51:32.770Z,4.15
2023-04-13T18:54:00.371Z,4.11
2023-04-13T18:56:28.392Z,4.09
2023-04-13T18:58:55.807Z,4.15
2023-04-13T19:01:23.431Z,4.15
2023-04-13T19:03:51.001Z,4.13
2023-04-13T19:06:19.736Z,4.07
2023-04-13T19:08:47.129Z,4.01
2023-04-13T19:11:14.959Z,3.96
2023-04-13T19:13:42.527Z,3.95
2023-04-13T19:16:11.785Z,3.88
2023-04-13T19:18:39.137Z,3.80
2023-04-13T19:21:06.400Z,3.52
2023-04-13T19:23:34.000Z,3.51
2023-04-13T19:26:01.462Z,3.54
2023-04-13T19:28:28.922Z,3.48
2023-04-13T19:30:56.479Z,3.59
2023-04-13T19:33:24.157Z,3.65
2023-04-13T19:35:52.257Z,3.70
2023-04-13T19:38:19.997Z,3.71
2023-04-13T19:40:47.421Z,3.69
2023-04-13T19:43:14.866Z,3.75
2023-04-13T19:45:42.747Z,3.72
2023-04-13T19:48:10.229Z,3.68
2023-04-13T19:50:37.376Z,3.75
2023-04-13T19:53:05.397Z,3.79
2023-04-13T19:55:32.718Z,3.81
2023-04-13T19:58:00.576Z,3.84
2023-04-13T20:00:27.800Z,3.85
2023-04-13T20:02:55.618Z,3.89
2023-04-13T20:05:23.253Z,3.87
2023-04-13T20:07:50.949Z,3.83
2023-04-13T20:10:18.114Z,3.80
2023-04-13T20:12:46.106Z,3.85
2023-04-13T20:15:13.664Z,3.82
2023-04-13T20:17:41.611Z,3.81
2023-04-13T20:20:09.574Z,3.74
2023-04-13T20:22:37.255Z,3.81
2023-04-13T20:25:06.061Z,3.76
2023-04-13T20:27:33.998Z,3.79
2023-04-13T20:30:01.295Z,3.83
2023-04-13T20:32:28.552Z,3.77
2023-04-13T20:34:56.449Z,3.63
2023-04-13T20:37:24.166Z,3.58
2023-04-13T20:39:51.502Z,3.67
2023-04-13T20:42:20.535Z,3.61
2023-04-13T20:44:47.942Z,3.65
2023-04-13T20:47:16.527Z,3.67
2023-04-13T20:49:43.793Z,3.61
2023-04-13T20:52:11.247Z,3.69
2023-04-13T20:54:39.107Z,3.74
2023-04-13T20:57:06.572Z,3.75
2023-04-13T20:59:33.992Z,3.74
2023-04-13T21:02:01.479Z,3.75
2023-04-13T21:04:29.230Z,3.76
2023-04-13T21:06:56.661Z,3.73
2023-04-13T21:09:24.037Z,3.74
2023-04-13T21:11:51.639Z,3.65
2023-04-13T21:14:19.373Z,3.67
2023-04-13T21:16:47.206Z,3.66
2023-04-13T21:19:14.832Z,3.54
2023-04-13T21:21:42.041Z,3.54
2023-04-13T21:24:10.095Z,3.57
2023-04-13T21:26:37.591Z,3.41
2023-04-13T21:29:05.001Z,3.22
2023-04-13T21:31:32.578Z,3.12
2023-04-13T21:34:00.400Z,3.02
2023-04-13T21:38:58.585Z,3.04
2023-04-13T21:41:26.426Z,3.02
2023-04-13T21:43:53.857Z,2.87
2023-04-13T21:46:21.421Z,2.70
2023-04-13T21:48:49.154Z,2.82
2023-04-13T21:51:16.499Z,2.73
2023-04-13T21:53:43.879Z,2.84
2023-04-13T21:56:11.175Z,2.82
2023-04-13T21:58:46.217Z,2.79
2023-04-13T22:01:14.821Z,2.76
2023-04-13T22:03:46.654Z,2.71
2023-04-13T22:06:14.756Z,2.84
2023-04-13T22:08:42.056Z,2.81
2023-04-13T22:11:09.592Z,2.95
2023-04-13T22:13:36.955Z,2.99
2023-04-13T22:16:04.721Z,2.92
2023-04-13T22:18:32.054Z,2.92
2023-04-13T22:21:00.045Z,2.97
2023-04-13T22:23:27.739Z,2.96
2023-04-13T22:25:56.844Z,2.94
2023-04-13T22:28:25.473Z,2.84
2023-04-13T22:30:53.188Z,2.60
2023-04-13T22:33:21.224Z,2.58
2023-04-13T22:35:48.563Z,2.57
2023-04-13T22:38:19.247Z,2.67
2023-04-13T22:40:46.507Z,2.68
2023-04-13T22:43:13.730Z,2.72
2023-04-13T22:45:40.914Z,2.72
2023-04-13T22:48:08.186Z,2.76
2023-04-13T22:50:37.590Z,2.76
2023-04-13T22:53:05.050Z,2.78
2023-04-13T22:55:32.304Z,2.86
2023-04-13T22:57:59.577Z,2.84
2023-04-13T23:00:26.759Z,2.88
2023-04-13T23:02:54.112Z,2.98
2023-04-13T23:05:21.919Z,2.96
2023-04-13T23:07:50.292Z,2.99
2023-04-13T23:10:18.025Z,3.04
2023-04-13T23:12:46.514Z,3.06
2023-04-13T23:15:14.611Z,3.11
2023-04-13T23:17:41.945Z,3.10
2023-04-13T23:20:09.628Z,3.11
2023-04-13T23:22:37.710Z,3.15
2023-04-13T23:25:06.023Z,3.15
2023-04-13T23:27:33.547Z,3.15
2023-04-13T23:30:00.941Z,3.11
2023-04-13T23:32:28.157Z,3.14
2023-04-13T23:34:55.426Z,3.18
2023-04-13T23:37:22.991Z,3.15
2023-04-13T23:39:50.200Z,3.14
2023-04-13T23:42:20.566Z,2.84
2023-04-13T23:44:48.325Z,2.86
2023-04-13T23:47:15.813Z,2.92
2023-04-13T23:49:43.237Z,2.83
2023-04-13T23:52:10.545Z,2.70
2023-04-13T23:54:38.009Z,2.72
2023-04-13T23:57:05.267Z,2.68
2023-04-13T23:59:32.947Z,2.51
